createdAt,value
2022-10-15T00:02:18.405Z,11.61
2022-10-15T00:04:44.904Z,11.60
2022-10-15T00:07:11.332Z,11.60
2022-10-15T00:09:37.780Z,11.61
2022-10-15T00:12:04.306Z,11.61
2022-10-15T00:14:30.967Z,11.60
2022-10-15T00:16:57.391Z,11.61
2022-10-15T00:19:23.799Z,11.61
2022-10-15T00:21:50.316Z,11.60
2022-10-15T00:24:16.784Z,11.59
2022-10-15T00:26:43.255Z,11.58
2022-10-15T00:29:09.745Z,11.56
2022-10-15T00:31:36.251Z,11.55
2022-10-15T00:34:03.246Z,11.55
2022-10-15T00:36:30.794Z,11.51
2022-10-15T00:38:57.344Z,11.51
2022-10-15T00:41:30.939Z,11.50
2022-10-15T00:43:58.527Z,11.50
2022-10-15T00:46:25.876Z,11.48
2022-10-15T00:48:58.997Z,11.48
2022-10-15T00:51:26.540Z,11.46
2022-10-15T00:53:53.009Z,11.43
2022-10-15T00:56:21.072Z,11.42
2022-10-15T00:58:47.656Z,11.41
2022-10-15T01:01:14.287Z,11.40
2022-10-15T01:03:40.751Z,11.41
2022-10-15T01:06:07.349Z,11.40
2022-10-15T01:08:34.091Z,11.40
2022-10-15T01:11:19.368Z,11.39
2022-10-15T01:14:00.102Z,11.38
2022-10-15T01:16:45.275Z,11.32
2022-10-15T01:19:18.232Z,11.32
2022-10-15T01:21:47.551Z,11.34
2022-10-15T01:24:22.157Z,11.30
2022-10-15T01:27:07.668Z,11.27
2022-10-15T01:29:52.409Z,11.20
2022-10-15T01:32:21.967Z,11.14
2022-10-15T01:34:51.463Z,11.10
2022-10-15T01:37:27.047Z,11.07
2022-10-15T01:40:02.074Z,11.03
2022-10-15T01:42:29.610Z,11.03
2022-10-15T01:44:58.516Z,11.03
2022-10-15T01:47:26.300Z,11.01
2022-10-15T01:49:53.132Z,10.99
2022-10-15T01:52:20.761Z,10.98
2022-10-15T01:54:47.586Z,11.01
2022-10-15T01:57:14.053Z,11.03
2022-10-15T01:59:40.466Z,11.07
2022-10-15T02:02:06.891Z,11.09
2022-10-15T02:04:33.375Z,11.09
2022-10-15T02:07:10.511Z,11.10
2022-10-15T02:09:39.920Z,11.09
2022-10-15T02:12:26.982Z,11.06
2022-10-15T02:14:54.794Z,11.00
2022-10-15T02:17:23.550Z,11.01
2022-10-15T02:19:51.739Z,10.94
2022-10-15T02:22:19.841Z,10.86
2022-10-15T02:24:53.033Z,10.83
2022-10-15T02:27:22.031Z,10.83
2022-10-15T02:29:49.236Z,10.88
2022-10-15T02:32:15.668Z,10.90
2022-10-15T02:34:42.101Z,10.97
2022-10-15T02:37:08.587Z,11.01
2022-10-15T02:39:35.175Z,11.04
2022-10-15T02:42:01.768Z,11.04
2022-10-15T02:44:28.211Z,11.06
2022-10-15T02:46:54.871Z,11.06
2022-10-15T02:49:21.290Z,11.06
2022-10-15T02:51:47.745Z,11.10
2022-10-15T02:54:14.222Z,11.10
2022-10-15T02:56:40.659Z,11.11
2022-10-15T02:59:07.281Z,11.60
2022-10-15T03:01:34.339Z,11.76
2022-10-15T03:04:01.064Z,11.37
2022-10-15T03:06:27.516Z,11.36
2022-10-15T03:08:53.907Z,11.29
2022-10-15T03:11:20.356Z,11.22
2022-10-15T03:13:46.820Z,11.94
2022-10-15T03:16:13.284Z,12.20
2022-10-15T03:18:40.890Z,12.68
2022-10-15T03:21:07.751Z,12.82
2022-10-15T03:26:05.585Z,12.77
2022-10-15T03:28:32.038Z,13.07
2022-10-15T03:30:58.549Z,12.51
2022-10-15T03:33:25.366Z,11.98
2022-10-15T03:35:52.779Z,12.05
2022-10-15T03:38:19.258Z,11.81
2022-10-15T03:40:45.922Z,11.82
2022-10-15T03:43:12.336Z,11.99
2022-10-15T03:45:38.786Z,11.85
2022-10-15T03:48:05.422Z,11.67
2022-10-15T03:50:31.876Z,11.40
2022-10-15T03:52:58.342Z,11.39
2022-10-15T03:55:24.803Z,11.55
2022-10-15T03:57:51.283Z,11.69
2022-10-15T04:00:17.750Z,11.63
2022-10-15T04:02:44.183Z,11.80
2022-10-15T04:05:10.596Z,11.74
2022-10-15T04:07:37.034Z,11.68
2022-10-15T04:10:03.639Z,11.69
2022-10-15T04:12:30.135Z,11.70
2022-10-15T04:14:56.572Z,11.60
2022-10-15T04:17:23.074Z,11.71
2022-10-15T04:19:49.483Z,11.71
2022-10-15T04:22:15.919Z,11.54
2022-10-15T04:24:42.343Z,11.67
2022-10-15T04:27:08.903Z,11.74
2022-10-15T04:29:35.428Z,11.69
2022-10-15T04:32:01.907Z,11.37
2022-10-15T04:34:28.686Z,11.30
2022-10-15T04:36:55.884Z,11.39
2022-10-15T04:39:22.343Z,11.50
2022-10-15T04:41:48.985Z,11.34
2022-10-15T04:44:15.550Z,11.29
2022-10-15T04:46:41.989Z,11.33
2022-10-15T04:49:08.492Z,11.33
2022-10-15T04:51:34.923Z,11.24
2022-10-15T04:54:01.839Z,11.31
2022-10-15T04:56:28.288Z,11.31
2022-10-15T04:58:54.838Z,11.35
2022-10-15T05:01:21.355Z,11.25
2022-10-15T05:03:48.323Z,11.24
2022-10-15T05:06:18.847Z,11.21
2022-10-15T05:08:45.653Z,11.24
2022-10-15T05:11:16.520Z,11.24
2022-10-15T05:13:43.101Z,11.21
2022-10-15T05:16:10.525Z,11.21
2022-10-15T05:18:37.120Z,11.29
2022-10-15T05:21:03.636Z,11.16
2022-10-15T05:23:30.081Z,11.17
2022-10-15T05:25:59.395Z,11.13
2022-10-15T05:28:25.867Z,11.11
2022-10-15T05:30:52.350Z,11.11
2022-10-15T05:33:18.820Z,11.10
2022-10-15T05:35:45.297Z,11.05
2022-10-15T05:38:11.875Z,11.07
2022-10-15T05:40:38.346Z,11.08
2022-10-15T05:43:04.758Z,11.11
2022-10-15T05:45:31.198Z,11.05
2022-10-15T05:47:57.631Z,11.04
2022-10-15T05:50:24.127Z,11.05
2022-10-15T05:52:50.601Z,11.04
2022-10-15T05:55:17.043Z,11.04
2022-10-15T05:57:43.448Z,11.00
2022-10-15T06:00:10.224Z,11.00
2022-10-15T06:02:36.757Z,10.98
2022-10-15T06:05:03.773Z,10.98
2022-10-15T06:07:30.266Z,11.00
2022-10-15T06:09:56.735Z,11.02
2022-10-15T06:12:23.158Z,10.97
2022-10-15T06:14:49.632Z,10.96
2022-10-15T06:17:16.060Z,10.99
2022-10-15T06:19:42.485Z,11.05
2022-10-15T06:22:08.873Z,11.10
2022-10-15T06:24:35.448Z,11.09
2022-10-15T06:27:01.855Z,11.11
2022-10-15T06:29:28.325Z,11.19
2022-10-15T06:31:54.841Z,11.26
2022-10-15T06:34:21.309Z,11.29
2022-10-15T06:36:47.743Z,11.31
2022-10-15T06:39:14.176Z,11.32
2022-10-15T06:41:40.637Z,11.35
2022-10-15T06:44:07.088Z,11.41
2022-10-15T06:46:33.483Z,11.49
2022-10-15T06:48:59.936Z,11.56
2022-10-15T06:51:26.373Z,11.60
2022-10-15T06:53:52.875Z,11.71
2022-10-15T06:56:19.507Z,11.84
2022-10-15T06:58:45.928Z,11.92
2022-10-15T07:01:12.367Z,11.98
2022-10-15T07:03:41.856Z,12.08
2022-10-15T07:06:08.821Z,12.33
2022-10-15T07:08:35.456Z,12.43
2022-10-15T07:11:03.146Z,12.68
2022-10-15T07:13:29.854Z,12.81
2022-10-15T07:15:56.325Z,13.04
2022-10-15T07:18:22.756Z,13.08
2022-10-15T07:20:49.200Z,13.13
2022-10-15T07:23:15.636Z,13.32
2022-10-15T07:25:42.187Z,13.49
2022-10-15T07:28:08.578Z,13.53
2022-10-15T07:30:35.035Z,13.42
2022-10-15T07:33:01.461Z,13.31
2022-10-15T07:35:28.112Z,13.13
2022-10-15T07:37:54.561Z,12.89
2022-10-15T07:40:21.022Z,12.64
2022-10-15T07:42:54.488Z,12.68
2022-10-15T07:45:20.991Z,12.72
2022-10-15T07:47:47.383Z,12.78
2022-10-15T07:50:13.868Z,12.72
2022-10-15T07:52:40.326Z,12.66
2022-10-15T07:55:06.914Z,12.60
2022-10-15T07:57:33.379Z,12.48
2022-10-15T07:59:59.816Z,12.37
2022-10-15T08:02:26.664Z,12.67
2022-10-15T08:04:53.232Z,12.93
2022-10-15T08:07:19.664Z,13.00
2022-10-15T08:12:12.441Z,12.94
2022-10-15T08:14:39.003Z,12.93
2022-10-15T08:17:05.637Z,12.89
2022-10-15T08:19:32.206Z,12.68
2022-10-15T08:21:58.845Z,12.60
2022-10-15T08:24:25.354Z,12.60
2022-10-15T08:26:52.067Z,12.51
2022-10-15T08:29:18.536Z,12.65
2022-10-15T08:31:44.957Z,12.68
2022-10-15T08:34:11.456Z,12.67
2022-10-15T08:36:37.885Z,12.66
2022-10-15T08:39:07.277Z,12.79
2022-10-15T08:41:44.515Z,12.94
2022-10-15T08:44:29.779Z,13.27
2022-10-15T08:46:57.636Z,13.39
2022-10-15T08:49:44.345Z,13.68
2022-10-15T08:52:14.966Z,13.80
2022-10-15T08:54:41.424Z,14.10
2022-10-15T08:57:31.196Z,14.12
2022-10-15T09:00:00.224Z,14.37
2022-10-15T09:02:38.774Z,14.78
2022-10-15T09:05:16.489Z,15.38
2022-10-15T09:07:43.470Z,15.59
2022-10-15T09:10:15.635Z,15.48
2022-10-15T09:13:01.787Z,15.28
2022-10-15T09:15:28.469Z,15.20
2022-10-15T09:17:54.886Z,15.00
2022-10-15T09:20:23.502Z,15.33
2022-10-15T09:22:50.830Z,15.40
2022-10-15T09:25:18.854Z,15.25
2022-10-15T09:27:46.246Z,15.20
2022-10-15T09:30:33.539Z,14.97
2022-10-15T09:33:03.377Z,14.88
2022-10-15T09:35:30.738Z,15.47
2022-10-15T09:37:57.173Z,15.49
2022-10-15T09:40:28.896Z,15.57
2022-10-15T09:42:55.875Z,15.42
2022-10-15T09:45:24.144Z,15.53
2022-10-15T09:47:50.691Z,16.82
2022-10-15T09:53:03.336Z,16.02
2022-10-15T09:55:59.290Z,16.65
2022-10-15T09:58:30.471Z,17.97
2022-10-15T10:00:58.309Z,17.36
2022-10-15T10:03:26.037Z,18.41
2022-10-15T10:05:58.717Z,18.89
2022-10-15T10:08:25.507Z,19.26
2022-10-15T10:10:55.307Z,19.50
2022-10-15T10:13:26.443Z,18.36
2022-10-15T10:15:58.262Z,18.00
2022-10-15T10:18:26.198Z,17.41
2022-10-15T10:20:59.151Z,17.51
2022-10-15T10:23:36.001Z,16.85
2022-10-15T10:26:03.552Z,16.50
2022-10-15T10:28:32.002Z,16.14
2022-10-15T10:30:58.597Z,15.83
2022-10-15T10:33:26.991Z,15.95
2022-10-15T10:35:53.483Z,15.90
2022-10-15T10:38:21.020Z,16.07
2022-10-15T10:40:50.949Z,16.07
2022-10-15T10:43:17.366Z,15.94
2022-10-15T10:45:57.519Z,15.77
2022-10-15T10:48:25.671Z,15.16
2022-10-15T10:51:10.034Z,15.13
2022-10-15T10:53:53.974Z,15.09
2022-10-15T10:56:22.392Z,15.27
2022-10-15T10:58:49.254Z,15.20
2022-10-15T11:01:15.744Z,15.38
2022-10-15T11:03:43.264Z,15.49
2022-10-15T11:06:18.904Z,15.25
2022-10-15T11:09:04.657Z,15.23
2022-10-15T11:11:33.954Z,15.05
2022-10-15T11:14:03.398Z,14.71
2022-10-15T11:16:44.941Z,14.55
2022-10-15T11:19:50.366Z,14.72
2022-10-15T11:22:13.054Z,15.03
2022-10-15T11:24:49.195Z,15.10
2022-10-15T11:27:40.515Z,14.73
2022-10-15T11:30:30.308Z,14.54
2022-10-15T11:33:08.887Z,14.47
2022-10-15T11:35:53.943Z,14.41
2022-10-15T11:38:20.967Z,14.57
2022-10-15T11:41:01.797Z,14.70
2022-10-15T11:43:35.703Z,14.73
2022-10-15T11:46:05.281Z,14.84
2022-10-15T11:48:38.631Z,14.56
2022-10-15T11:51:08.100Z,14.48
2022-10-15T11:53:42.600Z,14.58
2022-10-15T11:56:22.924Z,14.71
2022-10-15T11:58:52.941Z,14.73
2022-10-15T12:01:39.185Z,14.76
2022-10-15T12:04:13.298Z,14.82
2022-10-15T12:06:40.828Z,14.74
2022-10-15T12:09:07.276Z,15.06
2022-10-15T12:11:42.864Z,15.14
2022-10-15T12:14:15.528Z,14.85
2022-10-15T12:16:53.165Z,14.81
2022-10-15T12:19:19.672Z,14.82
2022-10-15T12:21:55.197Z,14.80
2022-10-15T12:24:44.740Z,14.85
2022-10-15T12:27:20.357Z,14.98
2022-10-15T12:29:47.579Z,15.04
2022-10-15T12:32:26.943Z,15.07
2022-10-15T12:34:56.966Z,15.02
2022-10-15T12:37:24.455Z,14.83
2022-10-15T12:39:55.415Z,14.74
2022-10-15T12:42:37.796Z,14.64
2022-10-15T12:45:05.619Z,14.69
2022-10-15T12:47:48.118Z,14.84
2022-10-15T12:50:21.918Z,14.85
2022-10-15T12:52:52.756Z,14.78
2022-10-15T12:55:23.738Z,14.69
2022-10-15T12:57:54.188Z,14.85
2022-10-15T13:00:27.767Z,14.92
2022-10-15T13:02:54.352Z,14.89
2022-10-15T13:05:30.769Z,14.90
2022-10-15T13:07:57.527Z,14.82
2022-10-15T13:10:33.510Z,14.85
2022-10-15T13:13:00.932Z,14.89
2022-10-15T13:15:28.047Z,14.83
2022-10-15T13:18:05.300Z,14.74
2022-10-15T13:20:33.921Z,14.66
2022-10-15T13:23:32.548Z,14.69
2022-10-15T13:26:30.011Z,14.68
2022-10-15T13:28:59.580Z,14.84
2022-10-15T13:31:30.107Z,14.92
2022-10-15T13:34:20.663Z,15.00
2022-10-15T13:36:47.324Z,14.75
2022-10-15T13:39:29.292Z,14.80
2022-10-15T13:42:16.057Z,14.94
2022-10-15T13:44:43.228Z,15.00
2022-10-15T13:47:26.078Z,14.95
2022-10-15T13:49:52.507Z,15.10
2022-10-15T13:52:18.958Z,15.19
2022-10-15T13:54:46.188Z,15.20
2022-10-15T13:57:14.777Z,15.00
2022-10-15T13:59:42.036Z,15.00
2022-10-15T14:02:10.526Z,15.07
2022-10-15T14:04:36.998Z,15.11
2022-10-15T14:07:22.878Z,15.31
2022-10-15T14:09:49.693Z,15.45
2022-10-15T14:12:16.279Z,15.52
2022-10-15T14:14:46.619Z,15.63
2022-10-15T14:17:23.148Z,15.68
2022-10-15T14:20:08.288Z,15.63
2022-10-15T14:22:40.268Z,15.66
2022-10-15T14:25:09.977Z,15.69
2022-10-15T14:27:36.579Z,15.85
2022-10-15T14:30:03.456Z,15.83
2022-10-15T14:32:46.809Z,15.72
2022-10-15T14:35:30.041Z,15.71
2022-10-15T14:38:04.043Z,15.72
2022-10-15T14:40:30.716Z,15.77
2022-10-15T14:43:06.426Z,15.84
2022-10-15T14:45:39.729Z,15.70
2022-10-15T14:48:10.268Z,15.73
2022-10-15T14:50:38.459Z,15.77
2022-10-15T14:53:08.876Z,15.59
2022-10-15T14:55:38.750Z,15.60
2022-10-15T14:58:09.381Z,15.64
2022-10-15T15:00:39.836Z,15.60
2022-10-15T15:03:07.180Z,15.57
2022-10-15T15:05:47.251Z,15.54
2022-10-15T15:08:14.075Z,15.49
2022-10-15T15:10:40.578Z,15.39
2022-10-15T15:13:07.022Z,15.27
2022-10-15T15:15:33.529Z,15.20
2022-10-15T15:18:00.206Z,15.10
2022-10-15T15:20:26.746Z,15.08
2022-10-15T15:22:53.728Z,15.05
2022-10-15T15:25:20.161Z,15.01
2022-10-15T15:27:46.900Z,15.01
2022-10-15T15:30:17.653Z,15.04
2022-10-15T15:32:44.221Z,15.00
2022-10-15T15:35:30.917Z,15.12
2022-10-15T15:37:57.408Z,15.09
2022-10-15T15:40:23.852Z,15.14
2022-10-15T15:42:50.756Z,15.10
2022-10-15T15:45:26.817Z,15.06
2022-10-15T15:47:53.544Z,15.09
2022-10-15T15:50:20.722Z,15.02
2022-10-15T15:52:47.471Z,15.06
2022-10-15T15:55:14.200Z,15.02
2022-10-15T15:57:40.614Z,15.08
2022-10-15T16:00:07.460Z,15.11
2022-10-15T16:02:34.013Z,15.12
2022-10-15T16:05:02.002Z,15.07
2022-10-15T16:07:28.903Z,15.06
2022-10-15T16:09:55.564Z,15.02
2022-10-15T16:12:22.048Z,14.99
2022-10-15T16:14:48.655Z,14.94
2022-10-15T16:17:15.136Z,14.92
2022-10-15T16:19:41.591Z,14.90
2022-10-15T16:22:08.027Z,14.96
2022-10-15T16:24:34.568Z,14.94
2022-10-15T16:27:01.117Z,14.96
2022-10-15T16:29:27.611Z,14.92
2022-10-15T16:31:54.109Z,14.94
2022-10-15T16:34:20.958Z,14.80
2022-10-15T16:36:47.398Z,14.69
2022-10-15T16:39:13.864Z,14.62
2022-10-15T16:41:40.354Z,14.62
2022-10-15T16:44:06.871Z,14.65
2022-10-15T16:46:33.389Z,14.59
2022-10-15T16:48:59.812Z,14.62
2022-10-15T16:51:26.707Z,14.68
2022-10-15T16:53:54.653Z,14.68
2022-10-15T16:56:22.294Z,14.55
2022-10-15T16:58:49.035Z,14.41
2022-10-15T17:01:17.063Z,14.25
2022-10-15T17:03:43.511Z,14.19
2022-10-15T17:06:10.962Z,14.09
2022-10-15T17:08:37.375Z,14.01
2022-10-15T17:11:03.849Z,13.96
2022-10-15T17:13:30.235Z,13.88
2022-10-15T17:15:59.200Z,13.89
2022-10-15T17:18:27.654Z,13.91
2022-10-15T17:20:54.122Z,13.91
2022-10-15T17:23:20.548Z,13.92
2022-10-15T17:25:46.998Z,13.86
2022-10-15T17:28:14.919Z,13.89
2022-10-15T17:30:41.561Z,13.91
2022-10-15T17:33:08.044Z,13.87
2022-10-15T17:35:37.723Z,13.79
2022-10-15T17:38:04.331Z,13.73
2022-10-15T17:40:30.924Z,13.71
2022-10-15T17:42:57.465Z,13.80
2022-10-15T17:45:24.007Z,13.77
2022-10-15T17:47:50.458Z,13.77
2022-10-15T17:50:16.942Z,13.77
2022-10-15T17:52:43.368Z,13.71
2022-10-15T17:55:09.865Z,13.73
2022-10-15T17:57:36.315Z,13.69
2022-10-15T18:00:02.802Z,13.63
2022-10-15T18:02:29.337Z,13.60
2022-10-15T18:04:55.802Z,13.57
2022-10-15T18:07:22.436Z,13.56
2022-10-15T18:09:49.373Z,13.53
2022-10-15T18:12:15.954Z,13.51
2022-10-15T18:14:42.495Z,13.46
2022-10-15T18:17:09.021Z,13.50
2022-10-15T18:19:35.461Z,13.51
2022-10-15T18:22:01.874Z,13.48
2022-10-15T18:24:28.312Z,13.46
2022-10-15T18:26:54.822Z,13.46
2022-10-15T18:29:22.453Z,13.46
2022-10-15T18:31:53.430Z,13.42
2022-10-15T18:34:22.860Z,13.42
2022-10-15T18:36:49.339Z,13.43
2022-10-15T18:39:15.821Z,13.38
2022-10-15T18:44:12.918Z,13.19
2022-10-15T18:46:42.070Z,13.04
2022-10-15T18:49:08.505Z,12.89
2022-10-15T18:51:35.067Z,12.79
2022-10-15T18:54:01.740Z,12.74
2022-10-15T18:56:28.500Z,12.63
2022-10-15T18:58:55.029Z,12.59
2022-10-15T19:01:24.933Z,12.48
2022-10-15T19:03:52.685Z,12.44
2022-10-15T19:06:22.926Z,12.36
2022-10-15T19:08:50.295Z,12.35
2022-10-15T19:11:17.132Z,12.31
2022-10-15T19:13:43.551Z,12.25
2022-10-15T19:16:09.974Z,12.20
2022-10-15T19:18:39.314Z,12.11
2022-10-15T19:21:06.049Z,12.03
2022-10-15T19:23:32.852Z,11.97
2022-10-15T19:25:59.323Z,11.83
2022-10-15T19:28:26.202Z,11.74
2022-10-15T19:30:59.870Z,11.68
2022-10-15T19:33:26.579Z,11.58
2022-10-15T19:35:53.646Z,11.57
2022-10-15T19:38:20.235Z,11.49
2022-10-15T19:40:49.382Z,11.41
2022-10-15T19:43:16.548Z,11.41
2022-10-15T19:45:43.298Z,11.40
2022-10-15T19:48:10.430Z,11.45
2022-10-15T19:50:38.054Z,11.35
2022-10-15T19:53:04.766Z,11.33
2022-10-15T19:55:31.237Z,11.35
2022-10-15T19:57:57.668Z,11.29
2022-10-15T20:00:24.328Z,11.34
2022-10-15T20:02:50.880Z,11.30
2022-10-15T20:05:17.449Z,11.36
2022-10-15T20:07:43.954Z,11.35
2022-10-15T20:10:10.443Z,11.32
2022-10-15T20:12:36.946Z,11.26
2022-10-15T20:15:03.841Z,11.19
2022-10-15T20:17:30.292Z,11.14
2022-10-15T20:19:56.781Z,11.15
2022-10-15T20:22:23.503Z,11.11
2022-10-15T20:24:50.263Z,11.12
2022-10-15T20:27:16.708Z,11.12
2022-10-15T20:29:43.144Z,11.10
2022-10-15T20:32:30.095Z,11.09
2022-10-15T20:34:59.913Z,11.19
2022-10-15T20:37:26.338Z,11.22
2022-10-15T20:39:52.809Z,11.39
2022-10-15T20:42:19.323Z,11.50
2022-10-15T20:44:45.751Z,11.51
2022-10-15T20:47:12.269Z,11.49
2022-10-15T20:49:42.281Z,11.52
2022-10-15T20:52:08.921Z,11.65
2022-10-15T20:54:35.464Z,11.62
2022-10-15T20:57:02.302Z,11.63
2022-10-15T20:59:30.387Z,11.70
2022-10-15T21:01:57.153Z,11.74
2022-10-15T21:04:23.618Z,11.79
2022-10-15T21:06:50.067Z,11.83
2022-10-15T21:09:16.548Z,11.91
2022-10-15T21:11:43.747Z,11.94
2022-10-15T21:14:10.916Z,11.99
2022-10-15T21:16:37.441Z,12.02
2022-10-15T21:19:03.984Z,12.02
2022-10-15T21:21:30.524Z,11.97
2022-10-15T21:23:57.693Z,11.97
2022-10-15T21:26:24.102Z,11.92
2022-10-15T21:28:54.531Z,11.95
2022-10-15T21:31:21.024Z,11.93
2022-10-15T21:33:48.016Z,11.96
2022-10-15T21:36:21.895Z,12.02
2022-10-15T21:38:49.397Z,12.06
2022-10-15T21:41:16.077Z,12.09
2022-10-15T21:43:42.596Z,12.02
2022-10-15T21:46:10.307Z,12.08
2022-10-15T21:48:37.055Z,12.09
2022-10-15T21:51:13.629Z,12.16
2022-10-15T21:53:40.302Z,12.12
2022-10-15T21:56:08.206Z,12.12
2022-10-15T21:58:36.429Z,12.01
2022-10-15T22:01:13.466Z,11.94
2022-10-15T22:03:42.166Z,11.90
2022-10-15T22:06:08.971Z,11.85
2022-10-15T22:08:35.619Z,11.83
2022-10-15T22:11:12.367Z,11.82
2022-10-15T22:13:39.046Z,11.80
2022-10-15T22:16:05.993Z,11.80
2022-10-15T22:18:32.430Z,11.74
2022-10-15T22:20:58.932Z,11.73
2022-10-15T22:23:27.712Z,11.71
2022-10-15T22:25:58.293Z,11.69
2022-10-15T22:28:25.009Z,11.66
2022-10-15T22:30:52.076Z,11.65
2022-10-15T22:33:18.628Z,11.64
2022-10-15T22:35:45.139Z,11.70
2022-10-15T22:38:11.534Z,11.72
2022-10-15T22:40:37.972Z,11.80
2022-10-15T22:43:04.406Z,11.79
2022-10-15T22:45:30.858Z,11.85
2022-10-15T22:47:57.295Z,11.82
2022-10-15T22:50:23.718Z,11.86
2022-10-15T22:52:50.144Z,11.90
2022-10-15T22:55:16.599Z,11.86
2022-10-15T22:57:43.100Z,11.86
2022-10-15T23:00:10.049Z,11.89
2022-10-15T23:02:36.464Z,11.86
2022-10-15T23:05:02.950Z,11.85
2022-10-15T23:07:29.427Z,11.78
2022-10-15T23:09:55.853Z,11.75
2022-10-15T23:12:22.889Z,11.69
2022-10-15T23:14:49.544Z,11.70
2022-10-15T23:17:16.047Z,11.73
2022-10-15T23:19:42.487Z,11.76
2022-10-15T23:22:10.613Z,11.77
2022-10-15T23:24:37.061Z,11.74
2022-10-15T23:27:03.718Z,11.76
2022-10-15T23:29:30.189Z,11.72
2022-10-15T23:31:56.633Z,11.70
2022-10-15T23:34:23.807Z,11.73
2022-10-15T23:36:50.335Z,11.71
2022-10-15T23:39:18.247Z,11.73
2022-10-15T23:41:45.118Z,11.70
2022-10-15T23:44:12.046Z,11.71
2022-10-15T23:46:38.573Z,11.76
2022-10-15T23:49:05.059Z,11.80
2022-10-15T23:51:31.683Z,11.82
2022-10-15T23:53:58.843Z,11.79
2022-10-15T23:56:25.771Z,11.75
2022-10-15T23:58:53.317Z,11.73
